sensor_id;sensor_type;location;lat;lon;timestamp;temperature;humidity
60293;DHT22;52402;52.670;6.750;2023-02-23T00:01:19;7.70;99.90
60293;DHT22;52402;52.670;6.750;2023-02-23T00:03:47;7.70;99.90
60293;DHT22;52402;52.670;6.750;2023-02-23T00:06:15;7.70;99.90
60293;DHT22;52402;52.670;6.750;2023-02-23T00:08:41;7.70;99.90
60293;DHT22;52402;52.670;6.750;2023-02-23T00:11:10;7.70;99.90
60293;DHT22;52402;52.670;6.750;2023-02-23T00:13:39;7.70;99.90
60293;DHT22;52402;52.670;6.750;2023-02-23T00:16:07;7.60;99.90
60293;DHT22;52402;52.670;6.750;2023-02-23T00:18:34;7.70;99.90
60293;DHT22;52402;52.670;6.750;2023-02-23T00:21:20;7.70;99.90
60293;DHT22;52402;52.670;6.750;2023-02-23T00:23:52;7.70;99.90
60293;DHT22;52402;52.670;6.750;2023-02-23T00:26:19;7.70;99.90
60293;DHT22;52402;52.670;6.750;2023-02-23T00:28:52;7.70;99.90
60293;DHT22;52402;52.670;6.750;2023-02-23T00:31:19;7.60;99.90
60293;DHT22;52402;52.670;6.750;2023-02-23T00:33:50;7.70;99.90
60293;DHT22;52402;52.670;6.750;2023-02-23T00:36:19;7.60;99.90
60293;DHT22;52402;52.670;6.750;2023-02-23T00:38:45;7.70;99.90
60293;DHT22;52402;52.670;6.750;2023-02-23T00:41:13;7.60;99.90
60293;DHT22;52402;52.670;6.750;2023-02-23T00:43:41;7.70;99.90
60293;DHT22;52402;52.670;6.750;2023-02-23T00:46:13;7.60;99.90
60293;DHT22;52402;52.670;6.750;2023-02-23T00:48:41;7.70;99.90
60293;DHT22;52402;52.670;6.750;2023-02-23T00:51:06;7.70;99.90
60293;DHT22;52402;52.670;6.750;2023-02-23T00:53:32;7.70;99.90
60293;DHT22;52402;52.670;6.750;2023-02-23T00:55:57;7.70;99.90
60293;DHT22;52402;52.670;6.750;2023-02-23T00:58:24;7.70;99.90
60293;DHT22;52402;52.670;6.750;2023-02-23T01:00:51;7.70;99.90
60293;DHT22;52402;52.670;6.750;2023-02-23T01:03:17;7.60;99.90
60293;DHT22;52402;52.670;6.750;2023-02-23T01:05:44;7.60;99.90
60293;DHT22;52402;52.670;6.750;2023-02-23T01:08:10;7.70;99.90
60293;DHT22;52402;52.670;6.750;2023-02-23T01:10:40;7.70;99.90
60293;DHT22;52402;52.670;6.750;2023-02-23T01:13:08;7.70;99.90
60293;DHT22;52402;52.670;6.750;2023-02-23T01:15:40;7.70;99.90
60293;DHT22;52402;52.670;6.750;2023-02-23T01:18:08;7.70;99.90
60293;DHT22;52402;52.670;6.750;2023-02-23T01:20:34;7.70;99.90
60293;DHT22;52402;52.670;6.750;2023-02-23T01:23:01;7.70;99.90
60293;DHT22;52402;52.670;6.750;2023-02-23T01:25:27;7.70;99.90
60293;DHT22;52402;52.670;6.750;2023-02-23T01:27:54;7.70;99.90
60293;DHT22;52402;52.670;6.750;2023-02-23T01:30:20;7.70;99.90
60293;DHT22;52402;52.670;6.750;2023-02-23T01:32:46;7.70;99.90
60293;DHT22;52402;52.670;6.750;2023-02-23T01:35:12;7.70;99.90
60293;DHT22;52402;52.670;6.750;2023-02-23T01:37:40;7.70;99.90
60293;DHT22;52402;52.670;6.750;2023-02-23T01:40:16;7.70;99.90
60293;DHT22;52402;52.670;6.750;2023-02-23T01:42:59;7.70;99.90
60293;DHT22;52402;52.670;6.750;2023-02-23T01:45:34;7.70;99.90
60293;DHT22;52402;52.670;6.750;2023-02-23T01:48:06;7.70;99.90
60293;DHT22;52402;52.670;6.750;2023-02-23T01:50:53;7.70;99.90
60293;DHT22;52402;52.670;6.750;2023-02-23T01:53:20;7.70;99.90
60293;DHT22;52402;52.670;6.750;2023-02-23T01:55:52;7.70;99.90
60293;DHT22;52402;52.670;6.750;2023-02-23T01:58:19;7.70;99.90
60293;DHT22;52402;52.670;6.750;2023-02-23T02:00:52;7.70;99.90
60293;DHT22;52402;52.670;6.750;2023-02-23T02:03:37;7.70;99.90
60293;DHT22;52402;52.670;6.750;2023-02-23T02:06:06;7.70;99.90
60293;DHT22;52402;52.670;6.750;2023-02-23T02:08:34;7.70;99.90
60293;DHT22;52402;52.670;6.750;2023-02-23T02:11:07;7.70;99.90
60293;DHT22;52402;52.670;6.750;2023-02-23T02:13:51;7.70;99.90
60293;DHT22;52402;52.670;6.750;2023-02-23T02:21:37;7.70;99.90
60293;DHT22;52402;52.670;6.750;2023-02-23T02:27:10;7.70;99.90
60293;DHT22;52402;52.670;6.750;2023-02-23T02:40:27;7.80;99.90
60293;DHT22;52402;52.670;6.750;2023-02-23T02:45:39;7.70;99.90
60293;DHT22;52402;52.670;6.750;2023-02-23T02:48:16;7.70;99.90
60293;DHT22;52402;52.670;6.750;2023-02-23T02:50:54;7.70;99.90
60293;DHT22;52402;52.670;6.750;2023-02-23T02:56:22;7.70;99.90
60293;DHT22;52402;52.670;6.750;2023-02-23T02:58:51;7.70;99.90
60293;DHT22;52402;52.670;6.750;2023-02-23T03:01:18;7.70;99.90
60293;DHT22;52402;52.670;6.750;2023-02-23T03:04:23;7.70;99.90
60293;DHT22;52402;52.670;6.750;2023-02-23T03:07:30;7.70;99.90
60293;DHT22;52402;52.670;6.750;2023-02-23T03:10:40;7.70;99.90
60293;DHT22;52402;52.670;6.750;2023-02-23T03:16:21;7.70;99.90
60293;DHT22;52402;52.670;6.750;2023-02-23T03:19:22;7.70;99.90
60293;DHT22;52402;52.670;6.750;2023-02-23T03:25:08;7.70;99.90
60293;DHT22;52402;52.670;6.750;2023-02-23T03:28:16;7.70;99.90
60293;DHT22;52402;52.670;6.750;2023-02-23T03:31:10;7.70;99.90
60293;DHT22;52402;52.670;6.750;2023-02-23T03:34:13;7.70;99.90
60293;DHT22;52402;52.670;6.750;2023-02-23T03:37:11;7.70;99.90
60293;DHT22;52402;52.670;6.750;2023-02-23T03:40:15;7.70;99.90
60293;DHT22;52402;52.670;6.750;2023-02-23T03:43:08;7.70;99.90
60293;DHT22;52402;52.670;6.750;2023-02-23T03:45:55;7.70;99.90
60293;DHT22;52402;52.670;6.750;2023-02-23T03:48:42;7.70;99.90
60293;DHT22;52402;52.670;6.750;2023-02-23T03:51:30;7.70;99.90
60293;DHT22;52402;52.670;6.750;2023-02-23T03:54:43;7.70;99.90
60293;DHT22;52402;52.670;6.750;2023-02-23T03:57:30;7.70;99.90
60293;DHT22;52402;52.670;6.750;2023-02-23T04:00:25;7.70;99.90
60293;DHT22;52402;52.670;6.750;2023-02-23T04:03:13;7.70;99.90
60293;DHT22;52402;52.670;6.750;2023-02-23T04:05:59;7.70;99.90
60293;DHT22;52402;52.670;6.750;2023-02-23T04:08:44;7.70;99.90
60293;DHT22;52402;52.670;6.750;2023-02-23T04:11:41;7.70;99.90
60293;DHT22;52402;52.670;6.750;2023-02-23T04:14:36;7.70;99.90
60293;DHT22;52402;52.670;6.750;2023-02-23T04:17:04;7.70;99.90
60293;DHT22;52402;52.670;6.750;2023-02-23T04:19:31;7.70;99.90
60293;DHT22;52402;52.670;6.750;2023-02-23T04:21:57;7.70;99.90
60293;DHT22;52402;52.670;6.750;2023-02-23T04:24:22;7.70;99.90
60293;DHT22;52402;52.670;6.750;2023-02-23T04:26:48;7.70;99.90
60293;DHT22;52402;52.670;6.750;2023-02-23T04:29:14;7.70;99.90
60293;DHT22;52402;52.670;6.750;2023-02-23T04:31:39;7.70;99.90
60293;DHT22;52402;52.670;6.750;2023-02-23T04:34:06;7.70;99.90
60293;DHT22;52402;52.670;6.750;2023-02-23T04:36:32;7.70;99.90
60293;DHT22;52402;52.670;6.750;2023-02-23T04:38:57;7.70;99.90
60293;DHT22;52402;52.670;6.750;2023-02-23T04:41:23;7.70;99.90
60293;DHT22;52402;52.670;6.750;2023-02-23T04:43:48;7.70;99.90
60293;DHT22;52402;52.670;6.750;2023-02-23T04:46:14;7.70;99.90
60293;DHT22;52402;52.670;6.750;2023-02-23T04:48:40;7.60;99.90
60293;DHT22;52402;52.670;6.750;2023-02-23T04:51:05;7.60;99.90
60293;DHT22;52402;52.670;6.750;2023-02-23T04:53:31;7.70;99.90
60293;DHT22;52402;52.670;6.750;2023-02-23T04:55:57;7.60;99.90
60293;DHT22;52402;52.670;6.750;2023-02-23T04:58:22;7.60;99.90
60293;DHT22;52402;52.670;6.750;2023-02-23T05:00:48;7.60;99.90
60293;DHT22;52402;52.670;6.750;2023-02-23T05:03:14;7.60;99.90
60293;DHT22;52402;52.670;6.750;2023-02-23T05:05:42;7.60;99.90
60293;DHT22;52402;52.670;6.750;2023-02-23T05:08:08;7.60;99.90
60293;DHT22;52402;52.670;6.750;2023-02-23T05:10:34;7.60;99.90
60293;DHT22;52402;52.670;6.750;2023-02-23T05:13:00;7.60;99.90
60293;DHT22;52402;52.670;6.750;2023-02-23T05:15:26;7.60;99.90
60293;DHT22;52402;52.670;6.750;2023-02-23T05:17:53;7.60;99.90
60293;DHT22;52402;52.670;6.750;2023-02-23T05:20:20;7.60;99.90
60293;DHT22;52402;52.670;6.750;2023-02-23T05:22:45;7.60;99.90
60293;DHT22;52402;52.670;6.750;2023-02-23T05:25:11;7.60;99.90
60293;DHT22;52402;52.670;6.750;2023-02-23T05:27:37;7.60;99.90
60293;DHT22;52402;52.670;6.750;2023-02-23T05:30:05;7.60;99.90
60293;DHT22;52402;52.670;6.750;2023-02-23T05:32:32;7.60;99.90
60293;DHT22;52402;52.670;6.750;2023-02-23T05:34:59;7.60;99.90
60293;DHT22;52402;52.670;6.750;2023-02-23T05:37:25;7.60;99.90
60293;DHT22;52402;52.670;6.750;2023-02-23T05:39:50;7.60;99.90
60293;DHT22;52402;52.670;6.750;2023-02-23T05:42:16;7.60;99.90
60293;DHT22;52402;52.670;6.750;2023-02-23T05:44:42;7.60;99.90
60293;DHT22;52402;52.670;6.750;2023-02-23T05:47:07;7.60;99.90
60293;DHT22;52402;52.670;6.750;2023-02-23T05:49:33;7.60;99.90
60293;DHT22;52402;52.670;6.750;2023-02-23T05:51:58;7.50;99.90
60293;DHT22;52402;52.670;6.750;2023-02-23T05:54:24;7.50;99.90
60293;DHT22;52402;52.670;6.750;2023-02-23T05:56:50;7.60;99.90
60293;DHT22;52402;52.670;6.750;2023-02-23T05:59:15;7.50;99.90
60293;DHT22;52402;52.670;6.750;2023-02-23T06:01:41;7.50;99.90
60293;DHT22;52402;52.670;6.750;2023-02-23T06:04:07;7.60;99.90
60293;DHT22;52402;52.670;6.750;2023-02-23T06:06:33;7.50;99.90
60293;DHT22;52402;52.670;6.750;2023-02-23T06:08:59;7.50;99.90
60293;DHT22;52402;52.670;6.750;2023-02-23T06:11:26;7.50;99.90
60293;DHT22;52402;52.670;6.750;2023-02-23T06:13:51;7.50;99.90
60293;DHT22;52402;52.670;6.750;2023-02-23T06:16:17;7.50;99.90
60293;DHT22;52402;52.670;6.750;2023-02-23T06:18:43;7.50;99.90
60293;DHT22;52402;52.670;6.750;2023-02-23T06:21:08;7.50;99.90
60293;DHT22;52402;52.670;6.750;2023-02-23T06:23:34;7.50;99.90
60293;DHT22;52402;52.670;6.750;2023-02-23T06:26:00;7.50;99.90
60293;DHT22;52402;52.670;6.750;2023-02-23T06:28:27;7.50;99.90
60293;DHT22;52402;52.670;6.750;2023-02-23T06:30:54;7.50;99.90
60293;DHT22;52402;52.670;6.750;2023-02-23T06:33:20;7.50;99.90
60293;DHT22;52402;52.670;6.750;2023-02-23T06:35:46;7.50;99.90
60293;DHT22;52402;52.670;6.750;2023-02-23T06:38:12;7.40;99.90
60293;DHT22;52402;52.670;6.750;2023-02-23T06:40:38;7.40;99.90
60293;DHT22;52402;52.670;6.750;2023-02-23T06:43:04;7.40;99.90
60293;DHT22;52402;52.670;6.750;2023-02-23T06:45:30;7.40;99.90
60293;DHT22;52402;52.670;6.750;2023-02-23T06:47:59;7.40;99.90
60293;DHT22;52402;52.670;6.750;2023-02-23T06:50:26;7.40;99.90
60293;DHT22;52402;52.670;6.750;2023-02-23T06:52:52;7.40;99.90
60293;DHT22;52402;52.670;6.750;2023-02-23T06:55:17;7.40;99.90
60293;DHT22;52402;52.670;6.750;2023-02-23T06:57:43;7.40;99.90
60293;DHT22;52402;52.670;6.750;2023-02-23T07:00:10;7.40;99.90
60293;DHT22;52402;52.670;6.750;2023-02-23T07:02:45;7.40;99.90
60293;DHT22;52402;52.670;6.750;2023-02-23T07:05:10;7.40;99.90
60293;DHT22;52402;52.670;6.750;2023-02-23T07:07:36;7.40;99.90
60293;DHT22;52402;52.670;6.750;2023-02-23T07:10:03;7.50;99.90
60293;DHT22;52402;52.670;6.750;2023-02-23T07:12:30;7.50;99.90
60293;DHT22;52402;52.670;6.750;2023-02-23T07:14:56;7.50;99.90
60293;DHT22;52402;52.670;6.750;2023-02-23T07:17:22;7.50;99.90
60293;DHT22;52402;52.670;6.750;2023-02-23T07:19:47;7.50;99.90
60293;DHT22;52402;52.670;6.750;2023-02-23T07:22:13;7.50;99.90
60293;DHT22;52402;52.670;6.750;2023-02-23T07:24:38;7.40;99.90
60293;DHT22;52402;52.670;6.750;2023-02-23T07:27:04;7.50;99.90
60293;DHT22;52402;52.670;6.750;2023-02-23T07:29:29;7.50;99.90
60293;DHT22;52402;52.670;6.750;2023-02-23T07:31:55;7.50;99.90
60293;DHT22;52402;52.670;6.750;2023-02-23T07:34:21;7.50;99.90
60293;DHT22;52402;52.670;6.750;2023-02-23T07:36:47;7.60;99.90
60293;DHT22;52402;52.670;6.750;2023-02-23T07:39:12;7.60;99.90
60293;DHT22;52402;52.670;6.750;2023-02-23T07:41:38;7.60;99.90
60293;DHT22;52402;52.670;6.750;2023-02-23T07:44:04;7.60;99.90
60293;DHT22;52402;52.670;6.750;2023-02-23T07:46:30;7.60;99.90
60293;DHT22;52402;52.670;6.750;2023-02-23T07:48:55;7.60;99.90
60293;DHT22;52402;52.670;6.750;2023-02-23T07:51:21;7.60;99.90
60293;DHT22;52402;52.670;6.750;2023-02-23T07:53:46;7.60;99.90
60293;DHT22;52402;52.670;6.750;2023-02-23T07:56:13;7.60;99.90
60293;DHT22;52402;52.670;6.750;2023-02-23T07:58:41;7.60;99.90
60293;DHT22;52402;52.670;6.750;2023-02-23T08:01:08;7.60;99.90
60293;DHT22;52402;52.670;6.750;2023-02-23T08:03:34;7.60;99.90
60293;DHT22;52402;52.670;6.750;2023-02-23T08:05:59;7.60;99.90
60293;DHT22;52402;52.670;6.750;2023-02-23T08:08:26;7.60;99.90
60293;DHT22;52402;52.670;6.750;2023-02-23T08:11:01;7.60;99.90
60293;DHT22;52402;52.670;6.750;2023-02-23T08:13:27;7.70;99.90
60293;DHT22;52402;52.670;6.750;2023-02-23T08:15:54;7.70;99.90
60293;DHT22;52402;52.670;6.750;2023-02-23T08:18:20;7.60;99.90
60293;DHT22;52402;52.670;6.750;2023-02-23T08:20:45;7.70;99.90
60293;DHT22;52402;52.670;6.750;2023-02-23T08:23:11;7.60;99.90
60293;DHT22;52402;52.670;6.750;2023-02-23T08:25:36;7.60;99.90
60293;DHT22;52402;52.670;6.750;2023-02-23T08:28:03;7.60;99.90
60293;DHT22;52402;52.670;6.750;2023-02-23T08:30:31;7.60;99.90
60293;DHT22;52402;52.670;6.750;2023-02-23T08:32:57;7.60;99.90
60293;DHT22;52402;52.670;6.750;2023-02-23T08:35:24;7.60;99.90
60293;DHT22;52402;52.670;6.750;2023-02-23T08:37:50;7.60;99.90
60293;DHT22;52402;52.670;6.750;2023-02-23T08:40:16;7.60;99.90
60293;DHT22;52402;52.670;6.750;2023-02-23T08:42:43;7.60;99.90
60293;DHT22;52402;52.670;6.750;2023-02-23T08:45:09;7.60;99.90
60293;DHT22;52402;52.670;6.750;2023-02-23T08:47:35;7.60;99.90
60293;DHT22;52402;52.670;6.750;2023-02-23T08:50:02;7.60;99.90
60293;DHT22;52402;52.670;6.750;2023-02-23T08:52:29;7.60;99.90
60293;DHT22;52402;52.670;6.750;2023-02-23T08:54:55;7.70;99.90
60293;DHT22;52402;52.670;6.750;2023-02-23T08:57:21;7.70;99.90
60293;DHT22;52402;52.670;6.750;2023-02-23T08:59:47;7.70;99.90
60293;DHT22;52402;52.670;6.750;2023-02-23T09:02:13;7.80;99.90
60293;DHT22;52402;52.670;6.750;2023-02-23T09:04:39;7.80;99.90
60293;DHT22;52402;52.670;6.750;2023-02-23T09:07:13;7.80;99.90
60293;DHT22;52402;52.670;6.750;2023-02-23T09:09:39;7.80;99.90
60293;DHT22;52402;52.670;6.750;2023-02-23T09:12:04;7.80;99.90
60293;DHT22;52402;52.670;6.750;2023-02-23T09:14:30;7.80;99.90
60293;DHT22;52402;52.670;6.750;2023-02-23T09:16:56;7.90;99.90
60293;DHT22;52402;52.670;6.750;2023-02-23T09:19:22;7.90;99.90
60293;DHT22;52402;52.670;6.750;2023-02-23T09:21:48;8.00;99.90
60293;DHT22;52402;52.670;6.750;2023-02-23T09:24:13;8.10;99.90
60293;DHT22;52402;52.670;6.750;2023-02-23T09:26:39;8.10;99.90
60293;DHT22;52402;52.670;6.750;2023-02-23T09:29:07;8.10;99.90
60293;DHT22;52402;52.670;6.750;2023-02-23T09:31:33;8.10;99.90
60293;DHT22;52402;52.670;6.750;2023-02-23T09:33:59;8.20;99.90
60293;DHT22;52402;52.670;6.750;2023-02-23T09:36:26;8.20;99.90
60293;DHT22;52402;52.670;6.750;2023-02-23T09:38:54;8.20;99.90
60293;DHT22;52402;52.670;6.750;2023-02-23T09:49:17;8.10;99.90
60293;DHT22;52402;52.670;6.750;2023-02-23T09:51:48;8.10;99.90
60293;DHT22;52402;52.670;6.750;2023-02-23T09:54:21;8.10;99.90
60293;DHT22;52402;52.670;6.750;2023-02-23T09:56:48;8.10;99.90
60293;DHT22;52402;52.670;6.750;2023-02-23T09:59:17;8.10;99.90
60293;DHT22;52402;52.670;6.750;2023-02-23T10:04:26;8.10;99.90
60293;DHT22;52402;52.670;6.750;2023-02-23T10:15:20;8.10;99.90
60293;DHT22;52402;52.670;6.750;2023-02-23T10:17:54;8.10;99.90
60293;DHT22;52402;52.670;6.750;2023-02-23T10:20:53;8.10;99.90
60293;DHT22;52402;52.670;6.750;2023-02-23T10:23:29;8.20;99.90
60293;DHT22;52402;52.670;6.750;2023-02-23T10:25:58;8.10;99.90
60293;DHT22;52402;52.670;6.750;2023-02-23T10:28:26;8.20;99.90
60293;DHT22;52402;52.670;6.750;2023-02-23T10:30:53;8.40;99.90
60293;DHT22;52402;52.670;6.750;2023-02-23T10:33:24;8.40;99.90
60293;DHT22;52402;52.670;6.750;2023-02-23T10:35:57;8.40;99.90
60293;DHT22;52402;52.670;6.750;2023-02-23T10:38:24;8.50;99.90
60293;DHT22;52402;52.670;6.750;2023-02-23T10:40:53;8.40;99.90
60293;DHT22;52402;52.670;6.750;2023-02-23T10:43:19;8.40;99.90
60293;DHT22;52402;52.670;6.750;2023-02-23T10:45:47;8.40;99.90
60293;DHT22;52402;52.670;6.750;2023-02-23T10:48:23;8.50;99.90
60293;DHT22;52402;52.670;6.750;2023-02-23T10:50:52;8.50;99.90
60293;DHT22;52402;52.670;6.750;2023-02-23T10:53:24;8.50;99.90
60293;DHT22;52402;52.670;6.750;2023-02-23T10:56:17;8.50;99.90
60293;DHT22;52402;52.670;6.750;2023-02-23T10:58:46;8.50;99.90
60293;DHT22;52402;52.670;6.750;2023-02-23T11:01:14;8.60;99.90
60293;DHT22;52402;52.670;6.750;2023-02-23T11:03:45;8.60;99.90
60293;DHT22;52402;52.670;6.750;2023-02-23T11:06:33;8.70;99.90
60293;DHT22;52402;52.670;6.750;2023-02-23T11:12:37;8.70;99.90
60293;DHT22;52402;52.670;6.750;2023-02-23T11:14:46;8.90;99.90
60293;DHT22;52402;52.670;6.750;2023-02-23T11:17:32;8.80;99.90
60293;DHT22;52402;52.670;6.750;2023-02-23T11:20:24;8.90;99.90
60293;DHT22;52402;52.670;6.750;2023-02-23T11:22:46;8.80;99.90
60293;DHT22;52402;52.670;6.750;2023-02-23T11:25:29;8.80;99.90
60293;DHT22;52402;52.670;6.750;2023-02-23T11:27:56;8.80;99.90
60293;DHT22;52402;52.670;6.750;2023-02-23T11:30:27;8.80;99.90
60293;DHT22;52402;52.670;6.750;2023-02-23T11:32:59;8.90;99.90
60293;DHT22;52402;52.670;6.750;2023-02-23T11:35:35;8.80;99.90
60293;DHT22;52402;52.670;6.750;2023-02-23T11:38:19;8.80;99.90
60293;DHT22;52402;52.670;6.750;2023-02-23T11:41:03;8.80;99.90
60293;DHT22;52402;52.670;6.750;2023-02-23T11:43:30;8.80;99.90
60293;DHT22;52402;52.670;6.750;2023-02-23T11:45:58;8.70;99.90
60293;DHT22;52402;52.670;6.750;2023-02-23T11:48:28;8.70;99.90
60293;DHT22;52402;52.670;6.750;2023-02-23T11:50:56;8.60;99.90
60293;DHT22;52402;52.670;6.750;2023-02-23T11:53:36;8.70;99.90
60293;DHT22;52402;52.670;6.750;2023-02-23T11:56:05;8.60;99.90
60293;DHT22;52402;52.670;6.750;2023-02-23T11:58:37;8.60;99.90
60293;DHT22;52402;52.670;6.750;2023-02-23T12:01:11;8.50;99.90
60293;DHT22;52402;52.670;6.750;2023-02-23T12:03:53;8.50;99.90
60293;DHT22;52402;52.670;6.750;2023-02-23T12:06:37;8.50;99.90
60293;DHT22;52402;52.670;6.750;2023-02-23T12:09:16;8.50;99.90
60293;DHT22;52402;52.670;6.750;2023-02-23T12:11:45;8.50;99.90
60293;DHT22;52402;52.670;6.750;2023-02-23T12:14:30;8.50;99.90
60293;DHT22;52402;52.670;6.750;2023-02-23T12:17:18;8.60;99.90
60293;DHT22;52402;52.670;6.750;2023-02-23T12:19:50;8.60;99.90
60293;DHT22;52402;52.670;6.750;2023-02-23T12:22:26;8.50;99.90
60293;DHT22;52402;52.670;6.750;2023-02-23T12:25:16;8.50;99.90
60293;DHT22;52402;52.670;6.750;2023-02-23T12:28:11;8.50;99.90
60293;DHT22;52402;52.670;6.750;2023-02-23T12:30:54;8.60;99.90
60293;DHT22;52402;52.670;6.750;2023-02-23T12:33:38;8.60;99.90
60293;DHT22;52402;52.670;6.750;2023-02-23T12:36:12;8.60;99.90
60293;DHT22;52402;52.670;6.750;2023-02-23T12:44:07;8.60;99.90
60293;DHT22;52402;52.670;6.750;2023-02-23T12:46:46;8.70;99.90
60293;DHT22;52402;52.670;6.750;2023-02-23T12:49:40;8.80;99.90
60293;DHT22;52402;52.670;6.750;2023-02-23T12:52:16;8.80;99.90
60293;DHT22;52402;52.670;6.750;2023-02-23T12:54:44;8.90;99.90
60293;DHT22;52402;52.670;6.750;2023-02-23T13:11:11;8.90;99.90
60293;DHT22;52402;52.670;6.750;2023-02-23T13:13:53;8.90;99.90
60293;DHT22;52402;52.670;6.750;2023-02-23T13:16:34;8.90;99.90
60293;DHT22;52402;52.670;6.750;2023-02-23T13:19:21;9.00;99.90
60293;DHT22;52402;52.670;6.750;2023-02-23T13:21:56;9.00;99.90
60293;DHT22;52402;52.670;6.750;2023-02-23T13:24:28;8.90;99.90
60293;DHT22;52402;52.670;6.750;2023-02-23T13:29:41;8.90;99.90
60293;DHT22;52402;52.670;6.750;2023-02-23T13:32:15;8.90;99.90
60293;DHT22;52402;52.670;6.750;2023-02-23T13:34:47;8.90;99.90
60293;DHT22;52402;52.670;6.750;2023-02-23T13:37:16;8.90;99.90
60293;DHT22;52402;52.670;6.750;2023-02-23T13:45:39;8.70;99.90
60293;DHT22;52402;52.670;6.750;2023-02-23T13:51:02;8.80;99.90
60293;DHT22;52402;52.670;6.750;2023-02-23T13:56:00;8.70;99.90
60293;DHT22;52402;52.670;6.750;2023-02-23T13:58:30;8.80;99.90
60293;DHT22;52402;52.670;6.750;2023-02-23T14:01:17;8.80;99.90
60293;DHT22;52402;52.670;6.750;2023-02-23T14:03:53;8.80;99.90
60293;DHT22;52402;52.670;6.750;2023-02-23T14:06:23;8.90;99.90
60293;DHT22;52402;52.670;6.750;2023-02-23T14:08:56;8.90;99.90
60293;DHT22;52402;52.670;6.750;2023-02-23T14:14:15;9.00;99.90
60293;DHT22;52402;52.670;6.750;2023-02-23T14:19:41;9.10;99.90
60293;DHT22;52402;52.670;6.750;2023-02-23T14:22:17;9.00;99.90
60293;DHT22;52402;52.670;6.750;2023-02-23T14:24:55;9.10;99.90
60293;DHT22;52402;52.670;6.750;2023-02-23T14:27:36;9.10;99.90
60293;DHT22;52402;52.670;6.750;2023-02-23T14:32:38;9.10;99.90
60293;DHT22;52402;52.670;6.750;2023-02-23T14:35:07;9.10;99.90
60293;DHT22;52402;52.670;6.750;2023-02-23T14:38:02;9.10;99.90
60293;DHT22;52402;52.670;6.750;2023-02-23T14:40:32;9.10;99.90
60293;DHT22;52402;52.670;6.750;2023-02-23T14:43:00;9.10;99.90
60293;DHT22;52402;52.670;6.750;2023-02-23T14:45:31;9.10;99.90
60293;DHT22;52402;52.670;6.750;2023-02-23T14:48:02;9.00;99.90
60293;DHT22;52402;52.670;6.750;2023-02-23T14:50:32;9.00;99.90
60293;DHT22;52402;52.670;6.750;2023-02-23T14:52:58;8.90;99.90
60293;DHT22;52402;52.670;6.750;2023-02-23T14:55:31;8.90;99.90
60293;DHT22;52402;52.670;6.750;2023-02-23T14:57:57;8.90;99.90
60293;DHT22;52402;52.670;6.750;2023-02-23T15:00:26;8.90;99.90
60293;DHT22;52402;52.670;6.750;2023-02-23T15:05:25;8.90;99.90
60293;DHT22;52402;52.670;6.750;2023-02-23T15:07:51;8.80;99.90
60293;DHT22;52402;52.670;6.750;2023-02-23T15:10:32;8.80;99.90
60293;DHT22;52402;52.670;6.750;2023-02-23T15:12:59;8.90;99.90
60293;DHT22;52402;52.670;6.750;2023-02-23T15:15:26;8.90;99.90
60293;DHT22;52402;52.670;6.750;2023-02-23T15:17:55;8.90;99.90
60293;DHT22;52402;52.670;6.750;2023-02-23T15:20:29;8.90;99.90
60293;DHT22;52402;52.670;6.750;2023-02-23T15:22:58;8.90;99.90
60293;DHT22;52402;52.670;6.750;2023-02-23T15:25:39;8.80;99.90
60293;DHT22;52402;52.670;6.750;2023-02-23T15:28:25;8.70;99.90
60293;DHT22;52402;52.670;6.750;2023-02-23T15:30:59;8.60;99.90
60293;DHT22;52402;52.670;6.750;2023-02-23T15:33:24;8.30;99.90
60293;DHT22;52402;52.670;6.750;2023-02-23T15:36:19;8.10;99.90
60293;DHT22;52402;52.670;6.750;2023-02-23T15:38:49;8.00;99.90
60293;DHT22;52402;52.670;6.750;2023-02-23T15:41:44;7.80;99.90
60293;DHT22;52402;52.670;6.750;2023-02-23T15:44:23;7.70;99.90
60293;DHT22;52402;52.670;6.750;2023-02-23T15:46:53;7.50;99.90
60293;DHT22;52402;52.670;6.750;2023-02-23T15:49:19;7.30;99.90
60293;DHT22;52402;52.670;6.750;2023-02-23T15:51:50;7.30;99.90
60293;DHT22;52402;52.670;6.750;2023-02-23T15:54:25;7.20;99.90
60293;DHT22;52402;52.670;6.750;2023-02-23T15:56:56;7.10;99.90
60293;DHT22;52402;52.670;6.750;2023-02-23T15:59:30;7.10;99.90
60293;DHT22;52402;52.670;6.750;2023-02-23T16:02:00;7.00;99.90
60293;DHT22;52402;52.670;6.750;2023-02-23T16:04:32;7.00;99.90
60293;DHT22;52402;52.670;6.750;2023-02-23T16:07:19;7.00;99.90
60293;DHT22;52402;52.670;6.750;2023-02-23T16:10:03;6.90;99.90
60293;DHT22;52402;52.670;6.750;2023-02-23T16:12:35;6.90;99.90
60293;DHT22;52402;52.670;6.750;2023-02-23T16:15:05;6.80;99.90
60293;DHT22;52402;52.670;6.750;2023-02-23T16:17:45;6.80;99.90
60293;DHT22;52402;52.670;6.750;2023-02-23T16:22:48;6.80;99.90
60293;DHT22;52402;52.670;6.750;2023-02-23T16:25:19;6.80;99.90
60293;DHT22;52402;52.670;6.750;2023-02-23T16:27:48;6.80;99.90
60293;DHT22;52402;52.670;6.750;2023-02-23T16:33:22;6.70;99.90
60293;DHT22;52402;52.670;6.750;2023-02-23T16:36:04;6.70;99.90
60293;DHT22;52402;52.670;6.750;2023-02-23T16:39:02;6.70;99.90
60293;DHT22;52402;52.670;6.750;2023-02-23T16:41:31;6.70;99.90
60293;DHT22;52402;52.670;6.750;2023-02-23T16:44:01;6.60;99.90
60293;DHT22;52402;52.670;6.750;2023-02-23T16:46:50;6.60;99.90
60293;DHT22;52402;52.670;6.750;2023-02-23T16:49:18;6.60;99.90
60293;DHT22;52402;52.670;6.750;2023-02-23T16:51:44;6.50;99.90
60293;DHT22;52402;52.670;6.750;2023-02-23T16:54:10;6.50;99.90
60293;DHT22;52402;52.670;6.750;2023-02-23T16:56:38;6.50;99.90
60293;DHT22;52402;52.670;6.750;2023-02-23T16:59:04;6.50;99.90
60293;DHT22;52402;52.670;6.750;2023-02-23T17:01:35;6.50;99.90
60293;DHT22;52402;52.670;6.750;2023-02-23T17:04:01;6.50;99.90
60293;DHT22;52402;52.670;6.750;2023-02-23T17:06:27;6.50;99.90
60293;DHT22;52402;52.670;6.750;2023-02-23T17:08:52;6.40;99.90
60293;DHT22;52402;52.670;6.750;2023-02-23T17:11:18;6.40;99.90
60293;DHT22;52402;52.670;6.750;2023-02-23T17:13:44;6.40;99.90
60293;DHT22;52402;52.670;6.750;2023-02-23T17:16:11;6.40;99.90
60293;DHT22;52402;52.670;6.750;2023-02-23T17:18:38;6.30;99.90
60293;DHT22;52402;52.670;6.750;2023-02-23T17:21:09;6.40;99.90
60293;DHT22;52402;52.670;6.750;2023-02-23T17:23:39;6.30;99.90
60293;DHT22;52402;52.670;6.750;2023-02-23T17:26:13;6.30;99.90
60293;DHT22;52402;52.670;6.750;2023-02-23T17:28:38;6.30;99.90
60293;DHT22;52402;52.670;6.750;2023-02-23T17:31:05;6.30;99.90
60293;DHT22;52402;52.670;6.750;2023-02-23T17:33:31;6.30;99.90
60293;DHT22;52402;52.670;6.750;2023-02-23T17:36:02;6.20;99.90
60293;DHT22;52402;52.670;6.750;2023-02-23T17:38:28;6.30;99.90
60293;DHT22;52402;52.670;6.750;2023-02-23T17:41:01;6.30;99.90
60293;DHT22;52402;52.670;6.750;2023-02-23T17:43:28;6.20;99.90
60293;DHT22;52402;52.670;6.750;2023-02-23T17:45:54;6.20;99.90
60293;DHT22;52402;52.670;6.750;2023-02-23T17:48:21;6.20;99.90
60293;DHT22;52402;52.670;6.750;2023-02-23T17:50:47;6.20;99.90
60293;DHT22;52402;52.670;6.750;2023-02-23T17:53:12;6.20;99.90
60293;DHT22;52402;52.670;6.750;2023-02-23T17:55:38;6.20;99.90